Time;durP1;ratioP1;P1;durP2;ratioP2;P2;SDS_P1;SDS_P2;PMS_P1;PMS_P2;Temp;Humidity;BMP_temperature;BMP_pressure;BME280_temperature;BME280_humidity;BME280_pressure;Samples;Min_cycle;Max_cycle;Signal;HPM_P1;HPM_P2
2023/12/29 00:00:22;;;;;;;4.43;4.03;;;;;;;7.19;100.00;96934.16;5082844;28;20260;-56
2023/12/29 00:02:49;;;;;;;5.30;4.23;;;;;;;7.27;100.00;96930.94;5083260;28;20209;-56
2023/12/29 00:05:16;;;;;;;4.57;4.17;;;;;;;7.30;100.00;96922.81;5082270;28;20199;-57
2023/12/29 00:07:42;;;;;;;4.53;4.10;;;;;;;7.35;100.00;96916.28;5082632;28;20194;-56
2023/12/29 00:10:10;;;;;;;4.10;3.80;;;;;;;7.41;100.00;96920.22;5082089;28;20288;-55
2023/12/29 00:12:37;;;;;;;4.50;4.10;;;;;;;7.44;100.00;96914.72;5082597;28;20810;-56
2023/12/29 00:15:04;;;;;;;5.23;4.20;;;;;;;7.48;100.00;96914.38;5081507;28;20656;-56
2023/12/29 00:17:32;;;;;;;4.63;4.07;;;;;;;7.56;100.00;96918.22;5082986;28;20206;-56
2023/12/29 00:19:58;;;;;;;4.03;3.73;;;;;;;7.58;100.00;96916.31;5081840;28;20308;-57
2023/12/29 00:22:27;;;;;;;4.00;3.60;;;;;;;7.65;100.00;96910.44;5082037;28;20224;-56
2023/12/29 00:24:53;;;;;;;4.20;3.80;;;;;;;7.69;100.00;96896.09;5081529;28;20205;-56
2023/12/29 00:27:22;;;;;;;4.47;4.07;;;;;;;7.71;100.00;96891.56;5082417;28;20856;-56
2023/12/29 00:29:48;;;;;;;4.33;3.93;;;;;;;7.72;100.00;96892.41;5081659;28;20206;-56
2023/12/29 00:32:15;;;;;;;3.80;3.50;;;;;;;7.78;100.00;96889.28;5082209;28;20208;-55
2023/12/29 00:34:42;;;;;;;4.23;3.70;;;;;;;7.74;100.00;96891.31;5082359;28;20197;-55
2023/12/29 00:37:09;;;;;;;4.10;3.80;;;;;;;7.72;100.00;96893.22;5081841;28;20285;-56
2023/12/29 00:39:38;;;;;;;4.27;3.87;;;;;;;7.74;100.00;96896.59;5084312;28;20214;-55
2023/12/29 00:42:05;;;;;;;4.10;3.80;;;;;;;7.71;100.00;96894.19;5089780;28;20210;-57
2023/12/29 00:44:35;;;;;;;4.43;3.90;;;;;;;7.69;100.00;96895.25;5086589;28;20269;-54
2023/12/29 00:47:01;;;;;;;4.27;3.87;;;;;;;7.63;100.00;96901.84;5087370;28;20277;-56
2023/12/29 00:49:28;;;;;;;3.67;3.37;;;;;;;7.59;100.00;96899.56;5088949;28;20294;-57
2023/12/29 00:51:54;;;;;;;5.37;3.73;;;;;;;7.55;100.00;96898.94;5084545;28;20293;-56
2023/12/29 00:54:21;;;;;;;4.97;3.80;;;;;;;7.54;100.00;96894.66;5084747;28;20198;-57
2023/12/29 00:56:58;;;;;;;3.93;3.53;;;;;;;7.56;100.00;96889.25;5084724;28;20197;-57
2023/12/29 00:59:25;;;;;;;4.13;3.77;;;;;;;7.54;100.00;96892.03;5083627;28;20292;-55
2023/12/29 01:01:53;;;;;;;4.23;3.87;;;;;;;7.57;100.00;96891.78;5085492;28;20202;-57
2023/12/29 01:04:20;;;;;;;3.80;3.50;;;;;;;7.58;100.00;96884.75;5085037;28;20194;-56
2023/12/29 01:06:47;;;;;;;4.17;3.60;;;;;;;7.61;100.00;96885.34;5084138;28;20193;-56
2023/12/29 01:09:13;;;;;;;4.03;3.73;;;;;;;7.58;100.00;96882.09;5081442;28;20259;-56
2023/12/29 01:11:40;;;;;;;4.20;3.80;;;;;;;7.61;100.00;96881.88;5081954;28;20530;-57
2023/12/29 01:14:07;;;;;;;3.93;3.63;;;;;;;7.61;100.00;96884.50;5081129;28;20214;-56
2023/12/29 01:16:33;;;;;;;4.50;3.50;;;;;;;7.65;100.00;96886.75;5081503;28;20202;-56
2023/12/29 01:19:01;;;;;;;4.23;3.93;;;;;;;7.67;100.00;96886.66;5080956;28;20638;-56
2023/12/29 01:21:28;;;;;;;3.80;3.50;;;;;;;7.69;100.00;96890.81;5081315;28;20630;-57
2023/12/29 01:23:54;;;;;;;4.20;3.90;;;;;;;7.71;100.00;96904.72;5081716;28;20846;-57
2023/12/29 01:26:21;;;;;;;4.00;3.70;;;;;;;7.69;100.00;96901.34;5080834;28;20658;-56
2023/12/29 01:28:49;;;;;;;4.67;4.20;;;;;;;7.65;100.00;96894.63;5080890;28;20535;-57
2023/12/29 01:31:16;;;;;;;5.50;3.90;;;;;;;7.72;100.00;96895.03;5081549;28;20286;-56
2023/12/29 01:33:43;;;;;;;4.03;3.73;;;;;;;7.75;100.00;96890.38;5081607;28;20285;-56
2023/12/29 01:36:18;;;;;;;4.23;3.83;;;;;;;7.76;100.00;96884.13;5082737;28;20287;-58
2023/12/29 01:38:45;;;;;;;4.20;3.90;;;;;;;7.81;100.00;96879.34;5085609;28;20204;-56
2023/12/29 01:41:11;;;;;;;3.67;3.37;;;;;;;7.83;100.00;96887.94;5085628;28;20374;-56
2023/12/29 01:44:20;;;;;;;4.57;3.83;;;;;;;7.96;100.00;96893.94;5085808;28;20322;-56
2023/12/29 01:46:51;;;;;;;3.60;3.30;;;;;;;8.03;100.00;96886.41;5087424;28;20216;-54
2023/12/29 01:49:19;;;;;;;4.87;3.70;;;;;;;8.17;100.00;96874.75;5087342;28;20182;-54
2023/12/29 01:51:49;;;;;;;3.80;3.50;;;;;;;8.28;100.00;96888.78;5088038;28;20552;-55
2023/12/29 01:54:16;;;;;;;3.80;3.40;;;;;;;8.38;100.00;96887.09;5085498;28;20697;-56
2023/12/29 01:56:43;;;;;;;4.37;3.87;;;;;;;8.50;100.00;96890.53;5086704;28;20207;-56
2023/12/29 01:59:10;;;;;;;4.20;3.53;;;;;;;8.59;99.53;96892.41;5084891;28;20206;-55
2023/12/29 02:01:39;;;;;;;4.27;3.80;;;;;;;8.65;99.51;96886.63;5084552;28;20708;-54
2023/12/29 02:04:06;;;;;;;3.50;3.20;;;;;;;8.69;99.83;96879.31;5085074;28;20195;-55
2023/12/29 02:06:32;;;;;;;4.63;3.20;;;;;;;8.72;100.00;96877.25;5096814;28;20262;-55
2023/12/29 02:09:04;;;;;;;3.93;3.63;;;;;;;8.89;96.75;96868.78;5095529;28;20278;-56
2023/12/29 02:11:31;;;;;;;3.20;3.00;;;;;;;9.05;93.90;96875.44;5090007;28;20520;-56
2023/12/29 02:13:58;;;;;;;3.10;2.90;;;;;;;9.11;93.16;96877.56;5084037;28;20204;-54
2023/12/29 02:16:34;;;;;;;3.87;3.43;;;;;;;9.22;92.02;96874.84;5084945;28;20402;-55
2023/12/29 02:19:02;;;;;;;3.70;3.40;;;;;;;9.36;89.86;96863.97;5084622;28;20202;-55
2023/12/29 02:21:29;;;;;;;3.40;3.10;;;;;;;9.39;91.13;96867.19;5084504;28;20558;-55
2023/12/29 02:23:55;;;;;;;4.07;3.23;;;;;;;9.44;89.20;96856.25;5083146;28;20285;-55
2023/12/29 02:26:26;;;;;;;3.07;2.80;;;;;;;9.45;90.70;96865.84;5084130;28;20201;-55
2023/12/29 02:28:56;;;;;;;3.40;2.97;;;;;;;9.40;91.99;96868.88;5084079;28;20650;-54
2023/12/29 02:31:25;;;;;;;3.10;2.90;;;;;;;9.42;92.92;96866.09;5084157;28;20200;-54
2023/12/29 02:33:53;;;;;;;3.30;3.00;;;;;;;9.43;92.45;96873.88;5083900;28;20216;-55
2023/12/29 02:36:20;;;;;;;3.57;3.27;;;;;;;9.51;89.40;96873.22;5084199;28;20204;-55
2023/12/29 02:38:46;;;;;;;3.33;3.03;;;;;;;9.52;90.35;96872.28;5083472;28;20220;-55
2023/12/29 02:41:14;;;;;;;4.03;3.10;;;;;;;9.57;89.94;96867.41;5084069;28;20218;-53
2023/12/29 02:43:42;;;;;;;3.20;3.00;;;;;;;9.59;90.37;96862.03;5084388;28;20255;-56
2023/12/29 02:46:10;;;;;;;3.57;3.23;;;;;;;9.67;88.82;96867.50;5084275;28;20198;-55
2023/12/29 02:48:37;;;;;;;3.40;3.10;;;;;;;9.64;89.65;96865.09;5084040;28;20281;-54
2023/12/29 02:51:04;;;;;;;3.40;3.10;;;;;;;9.71;88.32;96867.06;5083785;28;20284;-55
2023/12/29 02:53:30;;;;;;;3.83;3.37;;;;;;;9.71;88.46;96867.06;5083144;28;20206;-55
2023/12/29 02:55:57;;;;;;;3.37;3.07;;;;;;;9.77;87.66;96866.56;5083957;28;20198;-55
2023/12/29 02:58:23;;;;;;;3.77;3.40;;;;;;;9.79;87.95;96869.91;5083114;28;20198;-54
2023/12/29 03:00:51;;;;;;;3.60;3.10;;;;;;;9.80;88.28;96870.72;5083433;28;20328;-55
2023/12/29 03:03:18;;;;;;;3.77;2.87;;;;;;;9.75;89.03;96870.28;5083734;28;20291;-55
2023/12/29 03:05:44;;;;;;;3.90;3.20;;;;;;;9.78;89.49;96868.22;5083681;28;20228;-54
2023/12/29 03:08:11;;;;;;;3.70;3.40;;;;;;;9.79;88.78;96879.63;5083607;28;20297;-55
2023/12/29 03:10:37;;;;;;;3.73;3.20;;;;;;;9.74;89.26;96882.66;5083828;28;20205;-54
2023/12/29 03:13:04;;;;;;;3.37;3.07;;;;;;;9.66;90.97;96874.56;5083427;28;20212;-55
2023/12/29 03:15:31;;;;;;;3.47;3.10;;;;;;;9.64;90.86;96878.28;5083626;28;20206;-55
2023/12/29 03:17:59;;;;;;;4.10;3.37;;;;;;;9.69;88.22;96882.22;5085414;28;20206;-55
2023/12/29 03:20:26;;;;;;;3.63;3.23;;;;;;;9.73;87.92;96875.72;5093130;28;20230;-55
2023/12/29 03:22:52;;;;;;;3.90;3.60;;;;;;;9.72;89.31;96876.66;5089881;28;20205;-55
2023/12/29 03:25:19;;;;;;;3.63;3.33;;;;;;;9.78;88.36;96870.00;5088796;28;20202;-56
2023/12/29 03:27:45;;;;;;;3.87;3.57;;;;;;;9.75;89.63;96873.75;5085675;28;20211;-55
2023/12/29 03:30:12;;;;;;;3.80;3.40;;;;;;;9.69;90.83;96869.03;5082560;28;20194;-54
2023/12/29 03:32:39;;;;;;;3.83;3.53;;;;;;;9.63;91.42;96859.00;5083528;28;20313;-55
2023/12/29 03:35:08;;;;;;;3.97;2.90;;;;;;;9.60;91.57;96864.50;5083231;28;20208;-55
2023/12/29 03:37:35;;;;;;;3.47;3.17;;;;;;;9.57;92.24;96864.78;5083059;28;20210;-55
2023/12/29 03:40:02;;;;;;;3.50;3.20;;;;;;;9.54;93.98;96869.47;5083134;28;20827;-55
2023/12/29 03:42:31;;;;;;;3.87;3.57;;;;;;;9.44;98.24;96861.53;5083125;28;20230;-55
2023/12/29 03:44:58;;;;;;;4.70;3.77;;;;;;;9.39;97.04;96845.22;5083085;28;20206;-55
2023/12/29 03:47:24;;;;;;;4.00;3.60;;;;;;;9.38;93.64;96851.50;5082888;28;20225;-55
2023/12/29 03:49:52;;;;;;;6.57;3.83;;;;;;;9.39;97.77;96861.06;5082827;28;20222;-55
2023/12/29 03:52:20;;;;;;;4.57;3.40;;;;;;;9.36;99.93;96861.31;5082786;28;20228;-55
2023/12/29 03:54:47;;;;;;;4.47;4.00;;;;;;;9.27;100.00;96857.69;5082690;28;20202;-55
2023/12/29 03:57:14;;;;;;;3.43;3.13;;;;;;;9.21;100.00;96860.00;5083056;28;20234;-55
2023/12/29 03:59:41;;;;;;;3.87;3.47;;;;;;;9.06;100.00;96850.75;5081104;28;20202;-55
2023/12/29 04:02:07;;;;;;;3.57;3.27;;;;;;;9.08;100.00;96852.28;5081980;28;20224;-55
2023/12/29 04:04:37;;;;;;;5.30;3.53;;;;;;;9.10;100.00;96841.59;5082965;28;20209;-54
2023/12/29 04:07:04;;;;;;;3.60;3.30;;;;;;;9.03;100.00;96843.09;5083658;28;20194;-55
2023/12/29 04:09:32;;;;;;;4.07;3.60;;;;;;;8.96;100.00;96834.84;5082370;28;20212;-55
2023/12/29 04:11:58;;;;;;;3.80;3.50;;;;;;;8.86;100.00;96826.84;5082787;28;20530;-55
2023/12/29 04:14:25;;;;;;;3.73;3.43;;;;;;;8.92;100.00;96831.63;5081930;28;20201;-55
2023/12/29 04:16:53;;;;;;;4.13;3.70;;;;;;;8.89;100.00;96833.69;5082564;28;20200;-55
2023/12/29 04:19:19;;;;;;;3.83;3.53;;;;;;;8.92;100.00;96836.91;5083692;28;20259;-55
2023/12/29 04:21:46;;;;;;;4.60;3.90;;;;;;;8.90;100.00;96841.47;5091488;28;20321;-54
2023/12/29 04:24:12;;;;;;;3.93;3.63;;;;;;;8.96;100.00;96842.78;5092579;28;20266;-54
2023/12/29 04:26:40;;;;;;;4.50;3.67;;;;;;;9.00;100.00;96845.00;5087367;28;20617;-55
2023/12/29 04:29:07;;;;;;;3.90;3.60;;;;;;;9.04;100.00;96853.50;5082165;28;20202;-55
2023/12/29 04:31:33;;;;;;;4.77;3.47;;;;;;;9.02;100.00;96857.22;5082211;28;20204;-55
2023/12/29 04:34:00;;;;;;;3.77;3.47;;;;;;;9.03;100.00;96849.19;5082126;28;20205;-55
2023/12/29 04:36:26;;;;;;;3.70;3.33;;;;;;;8.99;100.00;96845.97;5082110;28;20537;-55
2023/12/29 04:38:53;;;;;;;3.63;3.33;;;;;;;8.96;100.00;96843.56;5082221;28;20268;-54
2023/12/29 04:41:20;;;;;;;3.83;3.57;;;;;;;8.89;100.00;96842.41;5081825;28;20214;-54
2023/12/29 04:43:47;;;;;;;4.10;3.70;;;;;;;8.89;100.00;96839.78;5081703;28;20202;-55
2023/12/29 04:46:14;;;;;;;4.20;3.80;;;;;;;8.87;100.00;96843.50;5082469;28;20210;-54
2023/12/29 04:48:41;;;;;;;3.90;3.60;;;;;;;8.92;100.00;96839.56;5082022;28;20216;-55
2023/12/29 04:51:07;;;;;;;4.20;3.70;;;;;;;8.94;100.00;96849.94;5081387;28;20203;-54
2023/12/29 04:53:34;;;;;;;3.83;3.53;;;;;;;8.95;100.00;96852.47;5081651;28;20220;-54
2023/12/29 04:56:00;;;;;;;4.60;4.10;;;;;;;8.89;100.00;96847.69;5081956;28;20208;-54
2023/12/29 04:58:27;;;;;;;4.43;4.00;;;;;;;8.82;100.00;96846.53;5081417;28;20626;-55
2023/12/29 05:00:55;;;;;;;3.90;3.60;;;;;;;8.77;100.00;96851.38;5080750;28;20243;-55
2023/12/29 05:03:21;;;;;;;4.13;3.77;;;;;;;8.69;100.00;96859.06;5081893;28;20194;-55
2023/12/29 05:05:48;;;;;;;4.47;4.07;;;;;;;8.65;100.00;96860.28;5081930;28;20280;-55
2023/12/29 05:08:14;;;;;;;4.10;3.80;;;;;;;8.63;100.00;96867.47;5081611;28;20217;-55
2023/12/29 05:10:43;;;;;;;4.00;3.70;;;;;;;8.59;100.00;96858.16;5081529;28;20528;-55
2023/12/29 05:13:09;;;;;;;4.43;4.03;;;;;;;8.64;100.00;96853.34;5085552;28;20277;-55
2023/12/29 05:15:36;;;;;;;4.10;3.80;;;;;;;8.50;100.00;96851.81;5085552;28;20281;-55
2023/12/29 05:18:04;;;;;;;4.23;3.90;;;;;;;8.43;100.00;96847.19;5085971;28;20297;-54
2023/12/29 05:20:30;;;;;;;4.13;3.83;;;;;;;8.38;100.00;96859.88;5085591;28;20217;-54
2023/12/29 05:22:57;;;;;;;4.33;3.93;;;;;;;8.26;100.00;96853.78;5085954;28;20191;-55
2023/12/29 05:25:24;;;;;;;5.80;5.27;;;;;;;8.25;100.00;96851.28;5085162;28;20202;-55
2023/12/29 05:27:50;;;;;;;4.70;4.30;;;;;;;8.24;100.00;96854.88;5085686;28;20206;-55
2023/12/29 05:30:18;;;;;;;4.77;4.20;;;;;;;8.14;100.00;96862.69;5084545;28;20207;-54
2023/12/29 05:32:45;;;;;;;4.60;4.13;;;;;;;8.14;100.00;96853.94;5085647;28;20297;-55
2023/12/29 05:35:13;;;;;;;4.20;3.90;;;;;;;8.14;100.00;96857.41;5085427;28;20210;-55
2023/12/29 05:37:39;;;;;;;5.20;4.17;;;;;;;8.11;100.00;96847.13;5085162;28;20643;-55
2023/12/29 05:40:07;;;;;;;4.93;4.23;;;;;;;8.07;100.00;96848.31;5085556;28;20282;-54
2023/12/29 05:42:34;;;;;;;4.50;4.10;;;;;;;8.08;100.00;96849.16;5085180;28;20733;-54
2023/12/29 05:45:00;;;;;;;4.17;3.77;;;;;;;8.02;100.00;96846.06;5084612;28;20288;-54
2023/12/29 05:47:27;;;;;;;4.43;4.03;;;;;;;8.02;100.00;96851.31;5085039;28;20234;-54
2023/12/29 05:49:54;;;;;;;5.03;4.20;;;;;;;8.00;100.00;96847.13;5085229;28;20521;-54
2023/12/29 05:52:22;;;;;;;6.10;4.30;;;;;;;8.01;100.00;96848.78;5084892;28;20526;-55
2023/12/29 05:54:49;;;;;;;4.43;4.03;;;;;;;7.94;100.00;96858.97;5084683;28;20237;-54
2023/12/29 05:57:16;;;;;;;5.23;4.40;;;;;;;7.97;100.00;96864.00;5085034;28;20313;-55
2023/12/29 05:59:42;;;;;;;4.83;4.10;;;;;;;7.98;100.00;96855.16;5084793;28;20213;-53
2023/12/29 06:02:11;;;;;;;4.30;4.00;;;;;;;7.87;100.00;96863.06;5084739;28;20313;-53
2023/12/29 06:04:37;;;;;;;5.40;4.10;;;;;;;7.89;100.00;96861.16;5084794;28;20281;-54
2023/12/29 06:07:04;;;;;;;4.93;4.40;;;;;;;7.89;100.00;96863.78;5084142;28;20678;-55
2023/12/29 06:09:32;;;;;;;6.27;3.97;;;;;;;7.89;100.00;96862.94;5084803;28;20297;-55
2023/12/29 06:11:59;;;;;;;5.27;4.33;;;;;;;7.88;100.00;96869.16;5084264;28;20294;-55
2023/12/29 06:14:25;;;;;;;5.17;4.67;;;;;;;7.84;100.00;96863.31;5084260;28;20288;-55
2023/12/29 06:16:53;;;;;;;5.53;4.20;;;;;;;7.84;100.00;96873.84;5084713;28;20286;-55
2023/12/29 06:19:24;;;;;;;4.97;4.47;;;;;;;7.85;100.00;96875.53;5084356;28;20248;-55
2023/12/29 06:21:52;;;;;;;4.33;3.93;;;;;;;7.86;100.00;96877.22;5083776;28;20216;-54
2023/12/29 06:24:18;;;;;;;4.90;4.50;;;;;;;7.82;100.00;96870.50;5084377;28;20305;-54
2023/12/29 06:26:46;;;;;;;4.90;4.47;;;;;;;7.79;100.00;96856.75;5084478;28;20369;-53
2023/12/29 06:29:13;;;;;;;4.40;4.00;;;;;;;7.79;100.00;96860.22;5083992;28;20277;-55
2023/12/29 06:31:41;;;;;;;5.13;4.37;;;;;;;7.78;100.00;96853.25;5084650;28;20364;-55
2023/12/29 06:34:08;;;;;;;4.80;4.20;;;;;;;7.79;100.00;96857.59;5087252;28;20213;-55
2023/12/29 06:36:35;;;;;;;4.50;4.10;;;;;;;7.83;100.00;96856.34;5095088;28;20209;-55
2023/12/29 06:39:01;;;;;;;5.13;4.27;;;;;;;7.78;100.00;96863.78;5093946;28;20225;-55
2023/12/29 06:41:28;;;;;;;4.60;4.10;;;;;;;7.81;100.00;96858.28;5088760;28;20312;-55
2023/12/29 06:43:56;;;;;;;4.60;4.17;;;;;;;7.78;100.00;96858.53;5083848;28;20722;-55
2023/12/29 06:46:22;;;;;;;4.10;3.80;;;;;;;7.80;100.00;96859.22;5083694;28;20234;-55
2023/12/29 06:48:49;;;;;;;4.40;4.00;;;;;;;7.80;100.00;96861.88;5083929;28;20276;-54
2023/12/29 06:51:19;;;;;;;6.80;5.97;;;;;;;7.77;100.00;96851.59;5083718;28;20840;-55
2023/12/29 06:53:47;;;;;;;5.97;5.47;;;;;;;7.87;100.00;96870.97;5083638;28;20206;-55
2023/12/29 06:56:15;;;;;;;4.90;4.50;;;;;;;7.94;100.00;96869.50;5084098;28;20198;-53
2023/12/29 06:58:41;;;;;;;4.77;3.97;;;;;;;8.00;100.00;96876.09;5082951;28;20194;-55
2023/12/29 07:01:09;;;;;;;6.30;5.60;;;;;;;8.01;100.00;96870.69;5084271;28;20325;-53
2023/12/29 07:03:36;;;;;;;4.60;4.20;;;;;;;8.09;100.00;96866.63;5084202;28;20274;-54
2023/12/29 07:06:03;;;;;;;5.07;4.60;;;;;;;8.05;100.00;96859.91;5084473;28;20277;-55
2023/12/29 07:08:30;;;;;;;4.47;4.07;;;;;;;8.12;100.00;96855.84;5083200;28;20194;-55
2023/12/29 07:10:59;;;;;;;4.70;4.30;;;;;;;8.25;100.00;96851.28;5083158;28;20733;-54
2023/12/29 07:13:25;;;;;;;4.17;3.77;;;;;;;8.39;100.00;96853.66;5082806;28;20703;-55
2023/12/29 07:15:52;;;;;;;4.50;4.10;;;;;;;8.47;100.00;96859.97;5083944;28;20287;-55
2023/12/29 07:18:23;;;;;;;4.63;4.13;;;;;;;8.52;100.00;96859.59;5083012;28;20301;-55
2023/12/29 07:20:50;;;;;;;4.43;4.03;;;;;;;8.57;100.00;96861.88;5083991;28;20381;-54
2023/12/29 07:23:17;;;;;;;3.83;3.53;;;;;;;8.60;100.00;96861.63;5083103;28;20698;-55
2023/12/29 07:25:43;;;;;;;3.53;3.23;;;;;;;8.62;100.00;96865.78;5083557;28;20290;-56
2023/12/29 07:28:10;;;;;;;3.90;3.60;;;;;;;8.60;100.00;96867.72;5082734;28;20284;-56
2023/12/29 07:30:37;;;;;;;4.10;3.80;;;;;;;8.64;100.00;96866.53;5100243;28;20239;-56
2023/12/29 07:33:03;;;;;;;3.90;3.60;;;;;;;8.69;100.00;96882.78;5100012;28;20654;-55
2023/12/29 07:35:31;;;;;;;3.90;3.57;;;;;;;8.82;100.00;96870.25;5099593;28;20588;-54
2023/12/29 07:38:00;;;;;;;3.97;3.60;;;;;;;8.88;100.00;96880.31;5106712;28;20206;-55
2023/12/29 07:40:27;;;;;;;4.83;3.73;;;;;;;8.97;100.00;96883.97;5085225;28;20210;-55
2023/12/29 07:42:53;;;;;;;4.43;4.03;;;;;;;8.98;100.00;96883.88;5082406;28;20316;-55
2023/12/29 07:45:23;;;;;;;7.60;6.77;;;;;;;9.01;100.00;96877.50;5082209;28;20230;-56
2023/12/29 07:47:49;;;;;;;4.00;3.70;;;;;;;9.13;100.00;96881.75;5082986;28;20221;-56
2023/12/29 07:50:16;;;;;;;4.00;3.70;;;;;;;9.12;100.00;96884.50;5082775;28;20309;-56
2023/12/29 07:52:45;;;;;;;3.80;3.60;;;;;;;9.18;100.00;96884.81;5082321;28;20417;-55
2023/12/29 07:55:12;;;;;;;3.97;3.40;;;;;;;9.27;100.00;96889.34;5081413;28;20209;-56
2023/12/29 07:57:38;;;;;;;3.93;3.63;;;;;;;9.32;100.00;96895.06;5082663;28;20201;-55
2023/12/29 08:00:06;;;;;;;3.70;3.50;;;;;;;9.33;100.00;96894.09;5082099;28;20230;-56
2023/12/29 08:02:33;;;;;;;3.80;3.50;;;;;;;9.37;100.00;96897.31;5082123;28;20224;-56
2023/12/29 08:04:59;;;;;;;3.60;3.30;;;;;;;9.41;100.00;96896.94;5082656;28;20297;-56
2023/12/29 08:07:27;;;;;;;3.40;3.10;;;;;;;9.45;100.00;96900.16;5082450;28;20538;-56
2023/12/29 08:09:55;;;;;;;3.30;3.10;;;;;;;9.44;100.00;96906.41;5082612;28;20189;-55
2023/12/29 08:12:21;;;;;;;3.60;3.30;;;;;;;9.45;100.00;96902.81;5082549;28;20202;-56
2023/12/29 08:14:48;;;;;;;4.30;3.40;;;;;;;9.47;100.00;96901.69;5082019;28;20202;-55
2023/12/29 08:17:16;;;;;;;3.33;3.03;;;;;;;9.54;100.00;96907.28;5082484;28;20202;-56
2023/12/29 08:19:42;;;;;;;3.33;2.90;;;;;;;9.52;100.00;96909.22;5082206;28;20190;-56
2023/12/29 08:22:10;;;;;;;3.10;2.90;;;;;;;9.58;100.00;96911.34;5081832;28;20226;-56
2023/12/29 08:24:37;;;;;;;3.30;2.97;;;;;;;9.61;100.00;96908.44;5082692;28;20927;-56
2023/12/29 08:27:05;;;;;;;3.50;3.13;;;;;;;9.59;100.00;96914.81;5084133;28;20631;-55
2023/12/29 08:29:31;;;;;;;2.93;2.67;;;;;;;9.63;100.00;96910.97;5084200;28;20228;-56
2023/12/29 08:31:58;;;;;;;3.30;3.07;;;;;;;9.63;100.00;96910.97;5084252;28;20237;-56
2023/12/29 08:34:25;;;;;;;3.07;2.87;;;;;;;9.66;100.00;96906.25;5082088;28;20208;-56
2023/12/29 08:36:52;;;;;;;3.03;2.83;;;;;;;9.67;100.00;96899.97;5082570;28;20719;-56
2023/12/29 08:39:18;;;;;;;3.23;2.93;;;;;;;9.66;100.00;96915.97;5081950;28;20212;-56
2023/12/29 08:41:45;;;;;;;3.60;3.30;;;;;;;9.63;100.00;96906.53;5082282;28;20268;-56
2023/12/29 08:44:14;;;;;;;2.63;2.53;;;;;;;9.68;100.00;96917.50;5082295;28;20198;-56
2023/12/29 08:46:41;;;;;;;2.90;2.70;;;;;;;9.69;100.00;96913.06;5082099;28;20639;-56
2023/12/29 08:49:07;;;;;;;3.10;2.60;;;;;;;9.69;100.00;96915.72;5085316;28;20438;-55
2023/12/29 08:51:34;;;;;;;2.80;2.60;;;;;;;9.64;100.00;96918.72;5092016;28;20198;-55
2023/12/29 08:54:00;;;;;;;3.13;2.93;;;;;;;9.62;100.00;96919.84;5089660;28;20277;-56
2023/12/29 08:56:28;;;;;;;3.37;3.07;;;;;;;9.63;100.00;96919.72;5081910;28;20208;-56
2023/12/29 08:58:54;;;;;;;2.93;2.73;;;;;;;9.63;100.00;96917.09;5081479;28;20208;-56
2023/12/29 09:01:22;;;;;;;2.90;2.70;;;;;;;9.62;100.00;96925.13;5080933;28;20689;-56
2023/12/29 09:03:49;;;;;;;3.30;3.00;;;;;;;9.63;100.00;96925.00;5081570;28;20288;-55
2023/12/29 09:06:16;;;;;;;3.10;2.80;;;;;;;9.72;100.00;96926.84;5081715;28;20206;-57
2023/12/29 09:08:42;;;;;;;3.30;3.10;;;;;;;9.75;100.00;96921.31;5081317;28;20202;-56
2023/12/29 09:11:09;;;;;;;3.00;2.80;;;;;;;9.76;100.00;96914.22;5080383;28;20214;-55
2023/12/29 09:13:36;;;;;;;3.17;2.87;;;;;;;9.80;100.00;96918.28;5080232;28;20586;-56
2023/12/29 09:16:04;;;;;;;3.10;2.90;;;;;;;9.80;100.00;96907.72;5081703;28;20220;-58
2023/12/29 09:18:33;;;;;;;3.33;3.07;;;;;;;9.73;100.00;96901.28;5082411;28;20194;-57
2023/12/29 09:21:00;;;;;;;3.80;2.90;;;;;;;9.69;100.00;96895.44;5081803;28;20198;-56
2023/12/29 09:23:27;;;;;;;2.83;2.63;;;;;;;9.71;100.00;96888.19;5081149;28;20226;-56
2023/12/29 09:25:53;;;;;;;2.90;2.70;;;;;;;9.75;100.00;96894.88;5081682;28;20210;-56
2023/12/29 09:28:20;;;;;;;2.97;2.63;;;;;;;9.74;100.00;96893.22;5080892;28;20330;-56
2023/12/29 09:30:47;;;;;;;3.30;3.10;;;;;;;9.77;100.00;96902.69;5081809;28;20203;-56
2023/12/29 09:33:14;;;;;;;3.30;3.00;;;;;;;9.77;100.00;96906.19;5081012;28;20289;-56
2023/12/29 09:35:43;;;;;;;2.93;2.67;;;;;;;9.76;100.00;96909.78;5081002;28;20216;-56
2023/12/29 09:38:10;;;;;;;3.07;2.77;;;;;;;9.73;100.00;96907.41;5080819;28;20195;-56
2023/12/29 09:40:37;;;;;;;2.93;2.63;;;;;;;9.80;100.00;96911.19;5081818;28;20206;-57
2023/12/29 09:43:04;;;;;;;2.93;2.73;;;;;;;9.77;100.00;96910.63;5081332;28;20231;-56
2023/12/29 09:45:31;;;;;;;3.47;2.77;;;;;;;9.75;100.00;96915.19;5081920;28;20206;-56
2023/12/29 09:47:58;;;;;;;2.93;2.73;;;;;;;9.78;100.00;96933.41;5081002;28;20218;-55
2023/12/29 09:50:26;;;;;;;4.20;3.10;;;;;;;9.78;100.00;96934.25;5081605;28;20198;-56
2023/12/29 09:52:57;;;;;;;3.10;2.90;;;;;;;9.81;100.00;96925.25;5081634;28;20201;-56
2023/12/29 09:55:24;;;;;;;3.60;3.33;;;;;;;9.82;100.00;96918.97;5082046;28;20235;-57
2023/12/29 09:57:50;;;;;;;3.40;3.20;;;;;;;9.92;100.00;96911.91;5085583;28;20210;-56
2023/12/29 10:00:18;;;;;;;3.33;3.13;;;;;;;9.90;100.00;96904.16;5085251;28;20244;-57
2023/12/29 10:02:45;;;;;;;3.70;3.40;;;;;;;9.90;100.00;96908.59;5085956;28;20214;-56
2023/12/29 10:05:11;;;;;;;3.00;2.80;;;;;;;9.93;100.00;96903.88;5085812;28;20217;-56
2023/12/29 10:07:39;;;;;;;3.10;2.90;;;;;;;10.07;100.00;96910.59;5085797;28;20309;-56
2023/12/29 10:10:08;;;;;;;3.03;2.80;;;;;;;10.15;100.00;96923.19;5085341;28;20209;-56
2023/12/29 10:12:36;;;;;;;3.50;3.20;;;;;;;10.20;100.00;96915.69;5085227;28;20242;-56
2023/12/29 10:15:16;;;;;;;2.93;2.70;;;;;;;10.25;100.00;96914.31;5085879;28;20210;-56
2023/12/29 10:17:52;;;;;;;3.00;2.80;;;;;;;10.31;100.00;96915.56;5085813;28;20202;-56
2023/12/29 10:20:26;;;;;;;2.80;2.70;;;;;;;10.36;100.00;96910.72;5084360;28;20217;-56
2023/12/29 10:22:59;;;;;;;3.30;3.00;;;;;;;10.36;100.00;96911.56;5084581;28;20214;-56
2023/12/29 10:25:27;;;;;;;3.83;2.80;;;;;;;10.36;100.00;96903.63;5084439;28;20192;-57
2023/12/29 10:27:53;;;;;;;2.70;2.50;;;;;;;10.52;100.00;96904.94;5084389;28;20202;-57
2023/12/29 10:30:20;;;;;;;2.80;2.60;;;;;;;10.61;100.00;96897.00;5084358;28;20205;-56
2023/12/29 10:32:51;;;;;;;3.17;2.97;;;;;;;10.64;100.00;96896.72;5084782;28;20542;-56
2023/12/29 10:35:18;;;;;;;5.83;3.43;;;;;;;10.68;100.00;96884.06;5084104;28;20206;-55
2023/12/29 10:37:44;;;;;;;3.40;3.20;;;;;;;10.76;100.00;96886.88;5084394;28;20287;-56
2023/12/29 10:40:17;;;;;;;3.20;2.90;;;;;;;10.72;100.00;96878.38;5084826;28;20282;-56
2023/12/29 10:42:55;;;;;;;3.13;2.83;;;;;;;10.79;100.00;96886.59;5084605;28;20213;-57
2023/12/29 10:45:22;;;;;;;3.77;3.13;;;;;;;10.81;100.00;96880.19;5084299;28;20234;-56
2023/12/29 10:47:49;;;;;;;3.87;3.27;;;;;;;10.88;100.00;96883.09;5084076;28;20212;-55
2023/12/29 10:50:15;;;;;;;15.83;12.20;;;;;;;10.92;100.00;96877.41;5083497;28;20292;-56
2023/12/29 10:52:42;;;;;;;3.13;2.93;;;;;;;10.86;100.00;96875.31;5083981;28;20293;-56
2023/12/29 10:55:10;;;;;;;3.27;3.07;;;;;;;10.84;100.00;96874.59;5083083;28;20206;-57
2023/12/29 10:57:37;;;;;;;3.57;3.27;;;;;;;10.84;100.00;96869.31;5084077;28;20216;-58
2023/12/29 11:00:09;;;;;;;3.53;3.33;;;;;;;10.73;100.00;96872.13;5088179;28;20269;-56
2023/12/29 11:02:35;;;;;;;2.80;2.70;;;;;;;10.81;100.00;96863.47;5093329;28;20301;-55
2023/12/29 11:05:04;;;;;;;3.17;2.97;;;;;;;10.85;100.00;96860.41;5089769;28;20208;-56
2023/12/29 11:07:37;;;;;;;3.13;2.93;;;;;;;10.78;100.00;96859.28;5085822;28;20207;-55
2023/12/29 11:10:05;;;;;;;3.47;3.17;;;;;;;10.79;100.00;96853.03;5083302;28;20654;-56
2023/12/29 11:12:33;;;;;;;3.60;3.30;;;;;;;10.84;100.00;96853.44;5083582;28;20206;-56
2023/12/29 11:15:01;;;;;;;4.03;3.23;;;;;;;10.88;100.00;96852.19;5083228;28;20198;-56
2023/12/29 11:17:30;;;;;;;3.70;3.40;;;;;;;10.97;100.00;96854.00;5084252;28;20217;-56
2023/12/29 11:19:59;;;;;;;3.73;3.43;;;;;;;10.94;100.00;96838.41;5083356;28;20197;-56
2023/12/29 11:22:29;;;;;;;3.33;3.13;;;;;;;11.03;100.00;96835.88;5082792;28;20222;-56
2023/12/29 11:24:58;;;;;;;3.47;3.20;;;;;;;11.19;100.00;96838.81;5083022;28;20210;-56
2023/12/29 11:27:27;;;;;;;3.33;3.13;;;;;;;11.38;100.00;96830.81;5083327;28;20205;-55
2023/12/29 11:29:54;;;;;;;3.80;3.50;;;;;;;11.42;100.00;96824.25;5083252;28;20285;-56
2023/12/29 11:32:25;;;;;;;3.60;3.30;;;;;;;11.46;100.00;96817.69;5082973;28;20245;-55
2023/12/29 11:34:57;;;;;;;3.40;3.20;;;;;;;11.64;100.00;96831.00;5083215;28;20287;-55